sensor_id;sensor_type;location;lat;lon;timestamp;P1;durP1;ratioP1;P2;durP2;ratioP2
27758;SDS011;15148;48.972;12.794;2023-03-01T00:03:09;29.10;;;18.90;;
27758;SDS011;15148;48.972;12.794;2023-03-01T00:08:11;29.85;;;18.70;;
27758;SDS011;15148;48.972;12.794;2023-03-01T00:13:13;26.35;;;18.42;;
27758;SDS011;15148;48.972;12.794;2023-03-01T00:18:15;25.85;;;17.80;;
27758;SDS011;15148;48.972;12.794;2023-03-01T00:23:17;23.80;;;17.58;;
27758;SDS011;15148;48.972;12.794;2023-03-01T00:28:19;25.85;;;18.63;;
27758;SDS011;15148;48.972;12.794;2023-03-01T00:33:21;24.65;;;17.75;;
27758;SDS011;15148;48.972;12.794;2023-03-01T00:38:23;27.77;;;18.52;;
27758;SDS011;15148;48.972;12.794;2023-03-01T00:43:26;24.35;;;18.52;;
27758;SDS011;15148;48.972;12.794;2023-03-01T00:48:27;25.17;;;18.05;;
27758;SDS011;15148;48.972;12.794;2023-03-01T00:53:29;23.25;;;17.20;;
27758;SDS011;15148;48.972;12.794;2023-03-01T00:58:31;23.88;;;17.35;;
27758;SDS011;15148;48.972;12.794;2023-03-01T01:03:33;25.25;;;16.98;;
27758;SDS011;15148;48.972;12.794;2023-03-01T01:08:35;23.33;;;16.98;;
27758;SDS011;15148;48.972;12.794;2023-03-01T01:13:37;24.65;;;17.92;;
27758;SDS011;15148;48.972;12.794;2023-03-01T01:18:40;26.23;;;17.98;;
27758;SDS011;15148;48.972;12.794;2023-03-01T01:23:42;25.52;;;16.05;;
27758;SDS011;15148;48.972;12.794;2023-03-01T01:28:46;21.92;;;15.88;;
27758;SDS011;15148;48.972;12.794;2023-03-01T01:33:48;21.30;;;14.77;;
27758;SDS011;15148;48.972;12.794;2023-03-01T01:38:50;22.38;;;16.45;;
27758;SDS011;15148;48.972;12.794;2023-03-01T01:59:54;23.30;;;15.55;;
27758;SDS011;15148;48.972;12.794;2023-03-01T02:05:06;24.63;;;16.17;;
27758;SDS011;15148;48.972;12.794;2023-03-01T02:10:16;22.50;;;15.63;;
27758;SDS011;15148;48.972;12.794;2023-03-01T02:15:18;18.50;;;14.55;;
27758;SDS011;15148;48.972;12.794;2023-03-01T02:30:54;19.88;;;14.43;;
27758;SDS011;15148;48.972;12.794;2023-03-01T02:36:16;17.95;;;13.00;;
27758;SDS011;15148;48.972;12.794;2023-03-01T02:41:20;19.90;;;14.55;;
27758;SDS011;15148;48.972;12.794;2023-03-01T02:46:24;17.60;;;12.57;;
27758;SDS011;15148;48.972;12.794;2023-03-01T02:51:31;17.02;;;12.65;;
27758;SDS011;15148;48.972;12.794;2023-03-01T02:57:02;23.42;;;14.85;;
27758;SDS011;15148;48.972;12.794;2023-03-01T03:02:06;21.05;;;14.45;;
27758;SDS011;15148;48.972;12.794;2023-03-01T03:07:09;19.60;;;13.63;;
27758;SDS011;15148;48.972;12.794;2023-03-01T03:12:11;19.52;;;14.18;;
27758;SDS011;15148;48.972;12.794;2023-03-01T03:17:12;19.23;;;13.48;;
27758;SDS011;15148;48.972;12.794;2023-03-01T03:22:14;18.67;;;13.05;;
27758;SDS011;15148;48.972;12.794;2023-03-01T03:27:16;18.65;;;13.00;;
27758;SDS011;15148;48.972;12.794;2023-03-01T03:32:18;19.50;;;13.02;;
27758;SDS011;15148;48.972;12.794;2023-03-01T03:37:20;15.75;;;11.55;;
27758;SDS011;15148;48.972;12.794;2023-03-01T03:42:41;17.48;;;12.20;;
27758;SDS011;15148;48.972;12.794;2023-03-01T03:47:43;18.58;;;12.52;;
27758;SDS011;15148;48.972;12.794;2023-03-01T03:52:45;20.90;;;14.02;;
27758;SDS011;15148;48.972;12.794;2023-03-01T03:57:47;17.70;;;11.98;;
27758;SDS011;15148;48.972;12.794;2023-03-01T04:02:52;17.17;;;12.40;;
27758;SDS011;15148;48.972;12.794;2023-03-01T04:07:57;22.00;;;12.68;;
27758;SDS011;15148;48.972;12.794;2023-03-01T04:13:12;18.05;;;12.32;;
27758;SDS011;15148;48.972;12.794;2023-03-01T04:18:21;19.30;;;12.00;;
27758;SDS011;15148;48.972;12.794;2023-03-01T04:23:24;18.60;;;11.75;;
27758;SDS011;15148;48.972;12.794;2023-03-01T04:28:27;15.45;;;10.77;;
27758;SDS011;15148;48.972;12.794;2023-03-01T04:33:31;20.77;;;12.95;;
27758;SDS011;15148;48.972;12.794;2023-03-01T04:38:33;17.05;;;12.25;;
27758;SDS011;15148;48.972;12.794;2023-03-01T04:43:35;20.35;;;12.23;;
27758;SDS011;15148;48.972;12.794;2023-03-01T04:48:37;17.65;;;12.00;;
27758;SDS011;15148;48.972;12.794;2023-03-01T04:53:40;16.58;;;11.88;;
27758;SDS011;15148;48.972;12.794;2023-03-01T04:58:43;17.25;;;11.77;;
27758;SDS011;15148;48.972;12.794;2023-03-01T05:03:49;17.80;;;11.75;;
27758;SDS011;15148;48.972;12.794;2023-03-01T05:08:52;16.85;;;11.15;;
27758;SDS011;15148;48.972;12.794;2023-03-01T05:13:54;15.77;;;10.48;;
27758;SDS011;15148;48.972;12.794;2023-03-01T05:18:56;15.52;;;10.32;;
27758;SDS011;15148;48.972;12.794;2023-03-01T05:23:59;15.85;;;10.68;;
27758;SDS011;15148;48.972;12.794;2023-03-01T05:29:01;16.40;;;10.20;;
27758;SDS011;15148;48.972;12.794;2023-03-01T05:34:03;18.33;;;13.63;;
27758;SDS011;15148;48.972;12.794;2023-03-01T05:39:05;12.95;;;9.55;;
27758;SDS011;15148;48.972;12.794;2023-03-01T05:44:07;15.43;;;9.52;;
27758;SDS011;15148;48.972;12.794;2023-03-01T05:49:08;13.75;;;9.05;;
27758;SDS011;15148;48.972;12.794;2023-03-01T05:54:10;15.30;;;9.20;;
27758;SDS011;15148;48.972;12.794;2023-03-01T05:59:12;15.20;;;8.80;;
27758;SDS011;15148;48.972;12.794;2023-03-01T06:04:15;14.32;;;9.90;;
27758;SDS011;15148;48.972;12.794;2023-03-01T06:09:16;55.17;;;24.77;;
27758;SDS011;15148;48.972;12.794;2023-03-01T06:14:18;20.48;;;12.00;;
27758;SDS011;15148;48.972;12.794;2023-03-01T06:19:22;15.77;;;10.02;;
27758;SDS011;15148;48.972;12.794;2023-03-01T06:24:23;23.20;;;14.55;;
27758;SDS011;15148;48.972;12.794;2023-03-01T06:29:25;63.13;;;32.45;;
27758;SDS011;15148;48.972;12.794;2023-03-01T06:34:27;87.13;;;46.95;;
27758;SDS011;15148;48.972;12.794;2023-03-01T06:39:29;58.67;;;35.00;;
27758;SDS011;15148;48.972;12.794;2023-03-01T06:44:31;36.83;;;21.52;;
27758;SDS011;15148;48.972;12.794;2023-03-01T06:49:32;25.48;;;15.65;;
27758;SDS011;15148;48.972;12.794;2023-03-01T06:54:34;30.25;;;20.13;;
27758;SDS011;15148;48.972;12.794;2023-03-01T06:59:36;30.73;;;19.15;;
27758;SDS011;15148;48.972;12.794;2023-03-01T07:04:38;20.42;;;13.73;;
27758;SDS011;15148;48.972;12.794;2023-03-01T07:09:40;23.60;;;14.20;;
27758;SDS011;15148;48.972;12.794;2023-03-01T07:14:43;20.60;;;13.63;;
27758;SDS011;15148;48.972;12.794;2023-03-01T07:19:45;21.35;;;15.38;;
27758;SDS011;15148;48.972;12.794;2023-03-01T07:24:47;41.42;;;25.45;;
27758;SDS011;15148;48.972;12.794;2023-03-01T07:29:48;25.80;;;18.20;;
27758;SDS011;15148;48.972;12.794;2023-03-01T07:34:50;19.42;;;13.57;;
27758;SDS011;15148;48.972;12.794;2023-03-01T07:39:52;17.58;;;12.25;;
27758;SDS011;15148;48.972;12.794;2023-03-01T07:44:54;17.42;;;14.32;;
27758;SDS011;15148;48.972;12.794;2023-03-01T07:49:56;21.90;;;15.18;;
27758;SDS011;15148;48.972;12.794;2023-03-01T07:54:58;19.67;;;12.45;;
27758;SDS011;15148;48.972;12.794;2023-03-01T08:00:00;18.42;;;12.40;;
27758;SDS011;15148;48.972;12.794;2023-03-01T08:05:12;15.65;;;11.82;;
27758;SDS011;15148;48.972;12.794;2023-03-01T08:10:13;22.00;;;16.02;;
27758;SDS011;15148;48.972;12.794;2023-03-01T08:15:15;16.35;;;13.40;;
27758;SDS011;15148;48.972;12.794;2023-03-01T08:20:18;18.83;;;13.50;;
27758;SDS011;15148;48.972;12.794;2023-03-01T08:25:20;19.23;;;13.45;;
27758;SDS011;15148;48.972;12.794;2023-03-01T08:30:22;18.60;;;12.55;;
27758;SDS011;15148;48.972;12.794;2023-03-01T08:35:25;21.58;;;13.68;;
27758;SDS011;15148;48.972;12.794;2023-03-01T08:40:27;17.55;;;12.43;;
27758;SDS011;15148;48.972;12.794;2023-03-01T08:45:28;14.57;;;12.05;;
27758;SDS011;15148;48.972;12.794;2023-03-01T08:50:30;16.73;;;13.27;;
27758;SDS011;15148;48.972;12.794;2023-03-01T08:55:32;16.60;;;13.05;;
27758;SDS011;15148;48.972;12.794;2023-03-01T09:00:34;17.60;;;13.43;;
27758;SDS011;15148;48.972;12.794;2023-03-01T09:05:35;18.25;;;12.73;;
27758;SDS011;15148;48.972;12.794;2023-03-01T09:10:38;18.83;;;13.07;;
27758;SDS011;15148;48.972;12.794;2023-03-01T09:15:40;18.13;;;13.85;;
27758;SDS011;15148;48.972;12.794;2023-03-01T09:20:42;18.20;;;13.32;;
27758;SDS011;15148;48.972;12.794;2023-03-01T09:25:44;18.13;;;14.15;;
27758;SDS011;15148;48.972;12.794;2023-03-01T09:30:45;19.60;;;13.73;;
27758;SDS011;15148;48.972;12.794;2023-03-01T09:35:47;16.33;;;11.98;;
27758;SDS011;15148;48.972;12.794;2023-03-01T09:40:49;15.20;;;12.00;;
27758;SDS011;15148;48.972;12.794;2023-03-01T09:45:52;14.50;;;11.30;;
27758;SDS011;15148;48.972;12.794;2023-03-01T09:50:56;19.05;;;11.48;;
27758;SDS011;15148;48.972;12.794;2023-03-01T09:55:59;15.25;;;11.30;;
27758;SDS011;15148;48.972;12.794;2023-03-01T10:06:31;19.48;;;11.50;;
27758;SDS011;15148;48.972;12.794;2023-03-01T10:11:37;14.20;;;10.82;;
27758;SDS011;15148;48.972;12.794;2023-03-01T10:16:51;15.98;;;12.45;;
27758;SDS011;15148;48.972;12.794;2023-03-01T10:21:57;19.50;;;13.65;;
27758;SDS011;15148;48.972;12.794;2023-03-01T10:27:13;19.92;;;13.80;;
27758;SDS011;15148;48.972;12.794;2023-03-01T10:32:20;17.85;;;13.95;;
27758;SDS011;15148;48.972;12.794;2023-03-01T10:37:25;20.27;;;15.20;;
27758;SDS011;15148;48.972;12.794;2023-03-01T10:42:29;18.67;;;14.05;;
27758;SDS011;15148;48.972;12.794;2023-03-01T10:47:36;18.90;;;14.23;;
27758;SDS011;15148;48.972;12.794;2023-03-01T10:52:40;19.35;;;14.30;;
27758;SDS011;15148;48.972;12.794;2023-03-01T10:57:42;20.23;;;14.10;;
27758;SDS011;15148;48.972;12.794;2023-03-01T11:02:51;21.42;;;15.90;;
27758;SDS011;15148;48.972;12.794;2023-03-01T11:08:04;19.95;;;15.07;;
27758;SDS011;15148;48.972;12.794;2023-03-01T11:13:15;20.05;;;14.77;;
27758;SDS011;15148;48.972;12.794;2023-03-01T11:18:22;23.20;;;14.77;;
27758;SDS011;15148;48.972;12.794;2023-03-01T11:23:41;20.58;;;14.52;;
27758;SDS011;15148;48.972;12.794;2023-03-01T11:28:48;18.90;;;14.48;;
27758;SDS011;15148;48.972;12.794;2023-03-01T11:33:59;19.42;;;13.80;;
27758;SDS011;15148;48.972;12.794;2023-03-01T11:39:19;21.85;;;15.68;;
27758;SDS011;15148;48.972;12.794;2023-03-01T11:44:41;25.23;;;17.00;;
27758;SDS011;15148;48.972;12.794;2023-03-01T11:49:49;21.17;;;15.70;;
27758;SDS011;15148;48.972;12.794;2023-03-01T12:11:49;21.92;;;16.75;;
27758;SDS011;15148;48.972;12.794;2023-03-01T12:17:11;21.13;;;16.20;;
27758;SDS011;15148;48.972;12.794;2023-03-01T12:33:19;21.38;;;16.70;;
27758;SDS011;15148;48.972;12.794;2023-03-01T12:38:32;20.95;;;16.20;;
27758;SDS011;15148;48.972;12.794;2023-03-01T12:54:05;21.33;;;15.30;;
27758;SDS011;15148;48.972;12.794;2023-03-01T12:59:28;18.85;;;15.35;;
27758;SDS011;15148;48.972;12.794;2023-03-01T13:04:42;20.38;;;15.90;;
27758;SDS011;15148;48.972;12.794;2023-03-01T13:10:02;17.35;;;14.57;;
27758;SDS011;15148;48.972;12.794;2023-03-01T13:31:02;20.20;;;14.90;;
27758;SDS011;15148;48.972;12.794;2023-03-01T13:36:05;18.95;;;14.90;;
27758;SDS011;15148;48.972;12.794;2023-03-01T13:41:10;19.42;;;14.68;;
27758;SDS011;15148;48.972;12.794;2023-03-01T13:46:15;23.38;;;16.25;;
27758;SDS011;15148;48.972;12.794;2023-03-01T13:51:25;23.35;;;16.85;;
27758;SDS011;15148;48.972;12.794;2023-03-01T13:56:33;22.40;;;16.55;;
27758;SDS011;15148;48.972;12.794;2023-03-01T14:01:38;25.20;;;16.77;;
27758;SDS011;15148;48.972;12.794;2023-03-01T14:06:43;16.88;;;13.35;;
27758;SDS011;15148;48.972;12.794;2023-03-01T14:18:30;20.02;;;15.48;;
27758;SDS011;15148;48.972;12.794;2023-03-01T14:23:12;19.35;;;14.63;;
27758;SDS011;15148;48.972;12.794;2023-03-01T14:28:27;19.30;;;14.55;;
27758;SDS011;15148;48.972;12.794;2023-03-01T14:33:34;18.80;;;13.82;;
27758;SDS011;15148;48.972;12.794;2023-03-01T14:38:43;18.92;;;14.25;;
27758;SDS011;15148;48.972;12.794;2023-03-01T14:43:50;20.42;;;14.80;;
27758;SDS011;15148;48.972;12.794;2023-03-01T14:49:05;17.98;;;13.55;;
27758;SDS011;15148;48.972;12.794;2023-03-01T14:54:20;16.13;;;11.60;;
27758;SDS011;15148;48.972;12.794;2023-03-01T14:59:45;12.77;;;10.25;;
27758;SDS011;15148;48.972;12.794;2023-03-01T15:04:49;14.60;;;10.02;;
27758;SDS011;15148;48.972;12.794;2023-03-01T15:09:54;11.05;;;9.43;;
27758;SDS011;15148;48.972;12.794;2023-03-01T15:14:56;16.02;;;10.23;;
27758;SDS011;15148;48.972;12.794;2023-03-01T15:20:26;12.95;;;9.13;;
27758;SDS011;15148;48.972;12.794;2023-03-01T15:25:29;13.52;;;9.15;;
27758;SDS011;15148;48.972;12.794;2023-03-01T15:30:33;17.02;;;10.98;;
27758;SDS011;15148;48.972;12.794;2023-03-01T15:35:42;17.40;;;11.40;;
27758;SDS011;15148;48.972;12.794;2023-03-01T15:40:49;12.73;;;9.73;;
27758;SDS011;15148;48.972;12.794;2023-03-01T15:45:57;15.45;;;11.48;;
27758;SDS011;15148;48.972;12.794;2023-03-01T15:50:59;14.48;;;11.25;;
27758;SDS011;15148;48.972;12.794;2023-03-01T15:56:02;14.73;;;10.82;;
27758;SDS011;15148;48.972;12.794;2023-03-01T16:01:08;13.40;;;9.93;;
27758;SDS011;15148;48.972;12.794;2023-03-01T16:06:14;15.05;;;10.60;;
27758;SDS011;15148;48.972;12.794;2023-03-01T16:11:17;16.50;;;11.43;;
27758;SDS011;15148;48.972;12.794;2023-03-01T16:16:21;16.45;;;11.18;;
27758;SDS011;15148;48.972;12.794;2023-03-01T16:21:24;12.90;;;10.13;;
27758;SDS011;15148;48.972;12.794;2023-03-01T16:26:26;13.68;;;10.60;;
27758;SDS011;15148;48.972;12.794;2023-03-01T16:31:28;12.95;;;9.50;;
27758;SDS011;15148;48.972;12.794;2023-03-01T16:36:31;16.38;;;10.32;;
27758;SDS011;15148;48.972;12.794;2023-03-01T16:41:32;15.13;;;10.13;;
27758;SDS011;15148;48.972;12.794;2023-03-01T16:46:34;14.40;;;10.35;;
27758;SDS011;15148;48.972;12.794;2023-03-01T16:51:36;16.33;;;9.70;;
27758;SDS011;15148;48.972;12.794;2023-03-01T16:56:38;13.45;;;8.85;;
27758;SDS011;15148;48.972;12.794;2023-03-01T17:01:40;15.30;;;10.40;;
27758;SDS011;15148;48.972;12.794;2023-03-01T17:06:42;13.80;;;9.07;;
27758;SDS011;15148;48.972;12.794;2023-03-01T17:11:44;16.42;;;10.85;;
27758;SDS011;15148;48.972;12.794;2023-03-01T17:16:46;14.52;;;10.23;;
27758;SDS011;15148;48.972;12.794;2023-03-01T17:21:48;16.08;;;10.60;;
27758;SDS011;15148;48.972;12.794;2023-03-01T17:26:50;13.00;;;9.40;;
27758;SDS011;15148;48.972;12.794;2023-03-01T17:31:52;15.27;;;9.27;;
27758;SDS011;15148;48.972;12.794;2023-03-01T17:36:56;13.70;;;10.63;;
27758;SDS011;15148;48.972;12.794;2023-03-01T17:41:57;9.88;;;7.60;;
27758;SDS011;15148;48.972;12.794;2023-03-01T17:47:00;13.15;;;8.35;;
27758;SDS011;15148;48.972;12.794;2023-03-01T17:52:02;12.68;;;7.65;;
27758;SDS011;15148;48.972;12.794;2023-03-01T17:57:04;11.20;;;8.60;;
27758;SDS011;15148;48.972;12.794;2023-03-01T18:02:06;12.23;;;8.05;;
27758;SDS011;15148;48.972;12.794;2023-03-01T18:07:10;13.80;;;9.18;;
27758;SDS011;15148;48.972;12.794;2023-03-01T18:12:12;12.43;;;8.73;;
27758;SDS011;15148;48.972;12.794;2023-03-01T18:17:14;15.38;;;9.00;;
27758;SDS011;15148;48.972;12.794;2023-03-01T18:22:16;17.92;;;9.05;;
27758;SDS011;15148;48.972;12.794;2023-03-01T18:27:18;14.93;;;11.23;;
27758;SDS011;15148;48.972;12.794;2023-03-01T18:32:20;13.75;;;9.18;;
27758;SDS011;15148;48.972;12.794;2023-03-01T18:37:22;14.98;;;8.95;;
27758;SDS011;15148;48.972;12.794;2023-03-01T18:42:25;11.23;;;8.23;;
27758;SDS011;15148;48.972;12.794;2023-03-01T18:47:26;15.73;;;7.63;;
27758;SDS011;15148;48.972;12.794;2023-03-01T18:52:28;13.90;;;8.85;;
27758;SDS011;15148;48.972;12.794;2023-03-01T18:57:30;13.70;;;8.48;;
27758;SDS011;15148;48.972;12.794;2023-03-01T19:02:32;14.27;;;8.00;;
27758;SDS011;15148;48.972;12.794;2023-03-01T19:07:33;11.23;;;7.05;;
27758;SDS011;15148;48.972;12.794;2023-03-01T19:12:35;14.05;;;7.13;;
27758;SDS011;15148;48.972;12.794;2023-03-01T19:17:38;13.57;;;7.65;;
27758;SDS011;15148;48.972;12.794;2023-03-01T19:22:40;9.95;;;6.72;;
27758;SDS011;15148;48.972;12.794;2023-03-01T19:27:42;10.85;;;6.53;;
27758;SDS011;15148;48.972;12.794;2023-03-01T19:32:44;14.02;;;7.65;;
27758;SDS011;15148;48.972;12.794;2023-03-01T19:37:45;12.30;;;7.32;;
27758;SDS011;15148;48.972;12.794;2023-03-01T19:42:47;11.40;;;7.80;;
27758;SDS011;15148;48.972;12.794;2023-03-01T19:47:49;16.13;;;7.63;;
27758;SDS011;15148;48.972;12.794;2023-03-01T19:52:52;8.73;;;6.50;;
27758;SDS011;15148;48.972;12.794;2023-03-01T19:57:54;12.80;;;7.75;;
27758;SDS011;15148;48.972;12.794;2023-03-01T20:02:56;10.05;;;6.40;;
27758;SDS011;15148;48.972;12.794;2023-03-01T20:07:58;14.82;;;6.78;;
27758;SDS011;15148;48.972;12.794;2023-03-01T20:12:59;13.73;;;7.35;;
27758;SDS011;15148;48.972;12.794;2023-03-01T20:18:04;11.52;;;8.80;;
27758;SDS011;15148;48.972;12.794;2023-03-01T20:23:06;12.80;;;8.82;;
27758;SDS011;15148;48.972;12.794;2023-03-01T20:28:08;12.57;;;8.73;;
27758;SDS011;15148;48.972;12.794;2023-03-01T20:33:10;12.18;;;8.98;;
27758;SDS011;15148;48.972;12.794;2023-03-01T20:38:12;13.98;;;9.13;;
27758;SDS011;15148;48.972;12.794;2023-03-01T20:43:13;11.27;;;7.50;;
27758;SDS011;15148;48.972;12.794;2023-03-01T20:48:15;12.07;;;7.55;;
27758;SDS011;15148;48.972;12.794;2023-03-01T20:53:17;11.70;;;7.75;;
27758;SDS011;15148;48.972;12.794;2023-03-01T20:58:19;10.32;;;6.75;;
27758;SDS011;15148;48.972;12.794;2023-03-01T21:03:21;16.27;;;7.80;;
27758;SDS011;15148;48.972;12.794;2023-03-01T21:08:22;14.23;;;8.18;;
27758;SDS011;15148;48.972;12.794;2023-03-01T21:13:25;13.90;;;8.63;;
27758;SDS011;15148;48.972;12.794;2023-03-01T21:18:27;12.60;;;7.35;;
27758;SDS011;15148;48.972;12.794;2023-03-01T21:23:31;12.57;;;8.52;;
27758;SDS011;15148;48.972;12.794;2023-03-01T21:28:35;13.70;;;8.02;;
27758;SDS011;15148;48.972;12.794;2023-03-01T21:33:38;23.65;;;14.65;;
27758;SDS011;15148;48.972;12.794;2023-03-01T21:38:43;16.73;;;8.95;;
27758;SDS011;15148;48.972;12.794;2023-03-01T21:43:47;11.95;;;8.75;;
27758;SDS011;15148;48.972;12.794;2023-03-01T21:48:51;15.45;;;8.80;;
27758;SDS011;15148;48.972;12.794;2023-03-01T21:53:55;15.02;;;8.57;;
27758;SDS011;15148;48.972;12.794;2023-03-01T21:58:57;15.98;;;8.77;;
27758;SDS011;15148;48.972;12.794;2023-03-01T22:03:59;13.48;;;8.43;;
27758;SDS011;15148;48.972;12.794;2023-03-01T22:09:03;17.17;;;9.80;;
27758;SDS011;15148;48.972;12.794;2023-03-01T22:14:07;16.98;;;10.30;;
27758;SDS011;15148;48.972;12.794;2023-03-01T22:19:09;14.57;;;9.80;;
27758;SDS011;15148;48.972;12.794;2023-03-01T22:24:12;12.93;;;8.38;;
27758;SDS011;15148;48.972;12.794;2023-03-01T22:29:16;20.92;;;9.10;;
27758;SDS011;15148;48.972;12.794;2023-03-01T22:34:22;13.30;;;8.65;;
27758;SDS011;15148;48.972;12.794;2023-03-01T22:39:24;13.07;;;8.20;;
27758;SDS011;15148;48.972;12.794;2023-03-01T22:44:26;10.13;;;7.25;;
27758;SDS011;15148;48.972;12.794;2023-03-01T22:49:28;13.30;;;7.82;;
27758;SDS011;15148;48.972;12.794;2023-03-01T22:54:30;11.07;;;7.68;;
27758;SDS011;15148;48.972;12.794;2023-03-01T22:59:32;12.40;;;7.63;;
27758;SDS011;15148;48.972;12.794;2023-03-01T23:04:34;12.85;;;7.20;;
27758;SDS011;15148;48.972;12.794;2023-03-01T23:09:36;11.90;;;6.70;;
27758;SDS011;15148;48.972;12.794;2023-03-01T23:14:37;12.55;;;6.78;;
27758;SDS011;15148;48.972;12.794;2023-03-01T23:19:40;12.73;;;7.43;;
27758;SDS011;15148;48.972;12.794;2023-03-01T23:24:42;15.98;;;8.10;;
27758;SDS011;15148;48.972;12.794;2023-03-01T23:29:44;17.45;;;8.10;;
27758;SDS011;15148;48.972;12.794;2023-03-01T23:34:46;12.32;;;7.82;;
27758;SDS011;15148;48.972;12.794;2023-03-01T23:39:48;10.63;;;7.68;;
27758;SDS011;15148;48.972;12.794;2023-03-01T23:44:50;12.63;;;8.60;;
27758;SDS011;15148;48.972;12.794;2023-03-01T23:49:51;9.77;;;7.00;;
27758;SDS011;15148;48.972;12.794;2023-03-01T23:54:53;10.23;;;6.72;;
27758;SDS011;15148;48.972;12.794;2023-03-01T23:59:55;11.60;;;7.35;;
